sensor_id;sensor_type;location;lat;lon;timestamp;pressure;altitude;pressure_sealevel;temperature;humidity
30081;BME280;16902;50.816;12.828;2023-05-16T00:01:53;97312.06;;;9.02;100.00
30081;BME280;16902;50.816;12.828;2023-05-16T00:06:55;97306.28;;;8.85;100.00
30081;BME280;16902;50.816;12.828;2023-05-16T00:11:57;97307.88;;;8.86;100.00
30081;BME280;16902;50.816;12.828;2023-05-16T00:16:59;97312.34;;;8.78;100.00
30081;BME280;16902;50.816;12.828;2023-05-16T00:22:01;97310.09;;;8.74;100.00
30081;BME280;16902;50.816;12.828;2023-05-16T00:27:04;97305.63;;;8.68;100.00
30081;BME280;16902;50.816;12.828;2023-05-16T00:32:06;97302.44;;;8.66;100.00
30081;BME280;16902;50.816;12.828;2023-05-16T00:37:09;97301.25;;;8.54;100.00
30081;BME280;16902;50.816;12.828;2023-05-16T00:42:11;97306.50;;;8.46;100.00
30081;BME280;16902;50.816;12.828;2023-05-16T00:47:12;97322.47;;;8.35;100.00
30081;BME280;16902;50.816;12.828;2023-05-16T00:52:15;97332.25;;;8.10;100.00
30081;BME280;16902;50.816;12.828;2023-05-16T00:57:17;97337.44;;;8.10;100.00
30081;BME280;16902;50.816;12.828;2023-05-16T01:02:19;97342.72;;;8.39;100.00
30081;BME280;16902;50.816;12.828;2023-05-16T01:07:21;97338.19;;;8.41;100.00
30081;BME280;16902;50.816;12.828;2023-05-16T01:12:30;97335.06;;;8.23;100.00
30081;BME280;16902;50.816;12.828;2023-05-16T01:17:54;97336.81;;;8.08;100.00
30081;BME280;16902;50.816;12.828;2023-05-16T01:28:35;97342.41;;;7.42;100.00
30081;BME280;16902;50.816;12.828;2023-05-16T01:33:37;97347.09;;;7.47;100.00
30081;BME280;16902;50.816;12.828;2023-05-16T01:39:10;97347.66;;;7.57;100.00
30081;BME280;16902;50.816;12.828;2023-05-16T01:44:36;97347.38;;;7.52;100.00
30081;BME280;16902;50.816;12.828;2023-05-16T01:50:06;97343.81;;;7.53;100.00
30081;BME280;16902;50.816;12.828;2023-05-16T01:55:15;97355.13;;;7.60;100.00
30081;BME280;16902;50.816;12.828;2023-05-16T02:00:17;97367.38;;;7.66;100.00
30081;BME280;16902;50.816;12.828;2023-05-16T02:05:18;97374.66;;;7.94;100.00
30081;BME280;16902;50.816;12.828;2023-05-16T02:10:20;97380.72;;;8.32;100.00
30081;BME280;16902;50.816;12.828;2023-05-16T02:15:22;97380.69;;;8.55;100.00
30081;BME280;16902;50.816;12.828;2023-05-16T02:20:24;97372.91;;;8.55;100.00
30081;BME280;16902;50.816;12.828;2023-05-16T02:25:26;97369.69;;;8.30;100.00
30081;BME280;16902;50.816;12.828;2023-05-16T02:30:28;97366.66;;;8.04;100.00
30081;BME280;16902;50.816;12.828;2023-05-16T02:35:29;97371.41;;;7.92;100.00
30081;BME280;16902;50.816;12.828;2023-05-16T02:40:31;97371.94;;;7.87;100.00
30081;BME280;16902;50.816;12.828;2023-05-16T02:45:33;97375.56;;;7.78;100.00
30081;BME280;16902;50.816;12.828;2023-05-16T02:50:36;97366.53;;;7.74;100.00
30081;BME280;16902;50.816;12.828;2023-05-16T02:55:38;97388.94;;;7.59;100.00
30081;BME280;16902;50.816;12.828;2023-05-16T03:00:40;97387.47;;;7.64;100.00
30081;BME280;16902;50.816;12.828;2023-05-16T03:05:42;97387.19;;;7.82;100.00
30081;BME280;16902;50.816;12.828;2023-05-16T03:10:44;97394.53;;;8.02;100.00
30081;BME280;16902;50.816;12.828;2023-05-16T03:15:47;97392.19;;;8.15;100.00
30081;BME280;16902;50.816;12.828;2023-05-16T03:20:49;97397.81;;;8.18;100.00
30081;BME280;16902;50.816;12.828;2023-05-16T03:25:53;97405.72;;;8.25;100.00
30081;BME280;16902;50.816;12.828;2023-05-16T03:30:55;97413.63;;;8.32;100.00
30081;BME280;16902;50.816;12.828;2023-05-16T03:35:56;97414.84;;;8.44;100.00
30081;BME280;16902;50.816;12.828;2023-05-16T03:40:58;97427.53;;;8.77;100.00
30081;BME280;16902;50.816;12.828;2023-05-16T03:46:00;97436.06;;;8.85;100.00
30081;BME280;16902;50.816;12.828;2023-05-16T03:51:02;97444.16;;;9.05;100.00
30081;BME280;16902;50.816;12.828;2023-05-16T03:56:04;97446.84;;;9.26;100.00
30081;BME280;16902;50.816;12.828;2023-05-16T04:01:06;97462.09;;;9.44;100.00
30081;BME280;16902;50.816;12.828;2023-05-16T04:06:08;97463.94;;;9.50;100.00
30081;BME280;16902;50.816;12.828;2023-05-16T04:11:09;97467.28;;;9.44;100.00
30081;BME280;16902;50.816;12.828;2023-05-16T04:16:11;97474.00;;;9.39;100.00
30081;BME280;16902;50.816;12.828;2023-05-16T04:21:13;97480.41;;;9.28;100.00
30081;BME280;16902;50.816;12.828;2023-05-16T04:26:15;97491.91;;;9.19;100.00
30081;BME280;16902;50.816;12.828;2023-05-16T04:31:17;97494.34;;;8.97;100.00
30081;BME280;16902;50.816;12.828;2023-05-16T04:36:19;97497.13;;;8.96;100.00
30081;BME280;16902;50.816;12.828;2023-05-16T04:41:21;97511.38;;;9.00;100.00
30081;BME280;16902;50.816;12.828;2023-05-16T04:46:26;97519.09;;;9.08;100.00
30081;BME280;16902;50.816;12.828;2023-05-16T04:51:27;97529.50;;;9.23;100.00
30081;BME280;16902;50.816;12.828;2023-05-16T04:56:29;97534.19;;;9.57;100.00
30081;BME280;16902;50.816;12.828;2023-05-16T05:01:31;97532.84;;;9.76;100.00
30081;BME280;16902;50.816;12.828;2023-05-16T05:06:32;97530.09;;;9.77;100.00
30081;BME280;16902;50.816;12.828;2023-05-16T05:11:34;97541.91;;;9.65;100.00
30081;BME280;16902;50.816;12.828;2023-05-16T05:16:36;97559.38;;;9.71;100.00
30081;BME280;16902;50.816;12.828;2023-05-16T05:21:37;97566.91;;;9.51;100.00
30081;BME280;16902;50.816;12.828;2023-05-16T05:26:39;97579.34;;;9.41;100.00
30081;BME280;16902;50.816;12.828;2023-05-16T05:31:41;97573.59;;;9.31;100.00
30081;BME280;16902;50.816;12.828;2023-05-16T05:36:43;97581.91;;;9.26;100.00
30081;BME280;16902;50.816;12.828;2023-05-16T05:41:44;97589.94;;;9.55;100.00
30081;BME280;16902;50.816;12.828;2023-05-16T05:46:46;97594.03;;;9.72;100.00
30081;BME280;16902;50.816;12.828;2023-05-16T05:51:48;97592.22;;;9.58;100.00
30081;BME280;16902;50.816;12.828;2023-05-16T05:56:52;97593.56;;;9.68;100.00
30081;BME280;16902;50.816;12.828;2023-05-16T06:01:54;97593.22;;;10.01;100.00
30081;BME280;16902;50.816;12.828;2023-05-16T06:06:55;97601.28;;;9.91;100.00
30081;BME280;16902;50.816;12.828;2023-05-16T06:11:57;97598.03;;;10.04;100.00
30081;BME280;16902;50.816;12.828;2023-05-16T06:16:59;97606.13;;;10.24;100.00
30081;BME280;16902;50.816;12.828;2023-05-16T06:22:00;97615.19;;;9.98;100.00
30081;BME280;16902;50.816;12.828;2023-05-16T06:27:02;97623.75;;;9.69;100.00
30081;BME280;16902;50.816;12.828;2023-05-16T06:32:04;97628.78;;;9.71;100.00
30081;BME280;16902;50.816;12.828;2023-05-16T06:37:06;97634.63;;;9.73;100.00
30081;BME280;16902;50.816;12.828;2023-05-16T06:42:08;97637.63;;;9.62;100.00
30081;BME280;16902;50.816;12.828;2023-05-16T06:47:11;97636.84;;;9.76;100.00
30081;BME280;16902;50.816;12.828;2023-05-16T06:52:12;97636.28;;;9.66;100.00
30081;BME280;16902;50.816;12.828;2023-05-16T06:57:14;97641.97;;;9.69;100.00
30081;BME280;16902;50.816;12.828;2023-05-16T07:02:16;97643.25;;;9.50;100.00
30081;BME280;16902;50.816;12.828;2023-05-16T07:07:18;97641.66;;;9.26;100.00
30081;BME280;16902;50.816;12.828;2023-05-16T07:12:20;97638.72;;;9.30;100.00
30081;BME280;16902;50.816;12.828;2023-05-16T07:17:21;97635.97;;;9.98;100.00
30081;BME280;16902;50.816;12.828;2023-05-16T07:22:23;97631.41;;;10.15;100.00
30081;BME280;16902;50.816;12.828;2023-05-16T07:27:26;97625.13;;;10.54;100.00
30081;BME280;16902;50.816;12.828;2023-05-16T07:32:28;97629.31;;;10.70;100.00
30081;BME280;16902;50.816;12.828;2023-05-16T07:37:30;97636.84;;;10.79;100.00
30081;BME280;16902;50.816;12.828;2023-05-16T07:42:31;97624.88;;;10.34;100.00
30081;BME280;16902;50.816;12.828;2023-05-16T07:47:33;97649.38;;;10.25;100.00
30081;BME280;16902;50.816;12.828;2023-05-16T07:52:36;97663.97;;;10.11;100.00
30081;BME280;16902;50.816;12.828;2023-05-16T07:57:37;97659.84;;;10.02;100.00
30081;BME280;16902;50.816;12.828;2023-05-16T08:02:40;97660.84;;;10.16;100.00
30081;BME280;16902;50.816;12.828;2023-05-16T08:07:42;97654.13;;;10.21;100.00
30081;BME280;16902;50.816;12.828;2023-05-16T08:12:43;97648.19;;;10.42;100.00
30081;BME280;16902;50.816;12.828;2023-05-16T08:17:45;97664.72;;;10.49;100.00
30081;BME280;16902;50.816;12.828;2023-05-16T08:22:47;97652.13;;;10.53;100.00
30081;BME280;16902;50.816;12.828;2023-05-16T08:27:49;97664.22;;;10.75;100.00
30081;BME280;16902;50.816;12.828;2023-05-16T08:32:51;97681.56;;;10.83;100.00
30081;BME280;16902;50.816;12.828;2023-05-16T08:37:53;97694.66;;;10.75;100.00
30081;BME280;16902;50.816;12.828;2023-05-16T08:42:55;97696.28;;;10.61;100.00
30081;BME280;16902;50.816;12.828;2023-05-16T08:47:59;97703.59;;;10.36;100.00
30081;BME280;16902;50.816;12.828;2023-05-16T08:53:06;97706.78;;;10.53;100.00
30081;BME280;16902;50.816;12.828;2023-05-16T08:58:09;97708.50;;;10.75;100.00
30081;BME280;16902;50.816;12.828;2023-05-16T09:03:11;97721.13;;;10.93;100.00
30081;BME280;16902;50.816;12.828;2023-05-16T09:08:14;97711.88;;;10.91;100.00
30081;BME280;16902;50.816;12.828;2023-05-16T09:13:15;97707.47;;;10.91;100.00
30081;BME280;16902;50.816;12.828;2023-05-16T09:18:20;97705.69;;;10.77;100.00
30081;BME280;16902;50.816;12.828;2023-05-16T09:23:25;97709.66;;;10.43;100.00
30081;BME280;16902;50.816;12.828;2023-05-16T09:28:27;97717.84;;;10.55;100.00
30081;BME280;16902;50.816;12.828;2023-05-16T09:33:29;97730.75;;;10.63;100.00
30081;BME280;16902;50.816;12.828;2023-05-16T09:38:31;97730.94;;;10.62;100.00
30081;BME280;16902;50.816;12.828;2023-05-16T09:43:32;97739.09;;;10.88;100.00
30081;BME280;16902;50.816;12.828;2023-05-16T09:48:48;97742.91;;;11.43;100.00
30081;BME280;16902;50.816;12.828;2023-05-16T09:53:52;97750.59;;;12.44;100.00
30081;BME280;16902;50.816;12.828;2023-05-16T09:58:54;97749.59;;;13.34;100.00
30081;BME280;16902;50.816;12.828;2023-05-16T10:03:55;97742.06;;;13.11;100.00
30081;BME280;16902;50.816;12.828;2023-05-16T10:08:58;97744.03;;;12.61;100.00
30081;BME280;16902;50.816;12.828;2023-05-16T10:14:04;97749.34;;;12.74;100.00
30081;BME280;16902;50.816;12.828;2023-05-16T10:19:08;97745.94;;;12.80;100.00
30081;BME280;16902;50.816;12.828;2023-05-16T10:24:15;97745.00;;;12.95;100.00
30081;BME280;16902;50.816;12.828;2023-05-16T10:29:19;97743.38;;;13.35;100.00
30081;BME280;16902;50.816;12.828;2023-05-16T10:34:22;97729.97;;;13.98;100.00
30081;BME280;16902;50.816;12.828;2023-05-16T10:39:24;97732.16;;;13.87;100.00
30081;BME280;16902;50.816;12.828;2023-05-16T10:44:30;97734.53;;;12.88;100.00
30081;BME280;16902;50.816;12.828;2023-05-16T10:49:32;97738.25;;;12.03;100.00
30081;BME280;16902;50.816;12.828;2023-05-16T10:54:38;97739.81;;;11.76;100.00
30081;BME280;16902;50.816;12.828;2023-05-16T10:59:43;97739.09;;;11.24;100.00
30081;BME280;16902;50.816;12.828;2023-05-16T11:04:47;97721.53;;;12.19;100.00
30081;BME280;16902;50.816;12.828;2023-05-16T11:10:02;97732.56;;;13.71;100.00
30081;BME280;16902;50.816;12.828;2023-05-16T11:15:19;97730.41;;;13.07;100.00
30081;BME280;16902;50.816;12.828;2023-05-16T11:20:26;97727.25;;;12.07;100.00
30081;BME280;16902;50.816;12.828;2023-05-16T11:25:35;97730.66;;;11.65;100.00
30081;BME280;16902;50.816;12.828;2023-05-16T11:30:48;97729.94;;;11.28;100.00
30081;BME280;16902;50.816;12.828;2023-05-16T11:36:03;97731.72;;;11.28;100.00
30081;BME280;16902;50.816;12.828;2023-05-16T11:41:17;97733.59;;;11.34;100.00
30081;BME280;16902;50.816;12.828;2023-05-16T11:46:19;97735.41;;;11.55;100.00
30081;BME280;16902;50.816;12.828;2023-05-16T11:51:21;97737.94;;;11.70;100.00
30081;BME280;16902;50.816;12.828;2023-05-16T11:56:23;97738.66;;;12.00;100.00
30081;BME280;16902;50.816;12.828;2023-05-16T12:01:33;97735.47;;;12.04;100.00
30081;BME280;16902;50.816;12.828;2023-05-16T12:06:36;97731.13;;;11.69;100.00
30081;BME280;16902;50.816;12.828;2023-05-16T12:11:41;97740.41;;;11.14;100.00
30081;BME280;16902;50.816;12.828;2023-05-16T12:16:43;97741.94;;;11.66;100.00
30081;BME280;16902;50.816;12.828;2023-05-16T12:21:47;97746.56;;;11.85;100.00
30081;BME280;16902;50.816;12.828;2023-05-16T12:26:52;97748.91;;;12.71;100.00
30081;BME280;16902;50.816;12.828;2023-05-16T12:31:53;97735.25;;;12.69;100.00
30081;BME280;16902;50.816;12.828;2023-05-16T12:36:55;97751.31;;;13.75;100.00
30081;BME280;16902;50.816;12.828;2023-05-16T12:42:04;97766.19;;;13.13;100.00
30081;BME280;16902;50.816;12.828;2023-05-16T12:47:12;97781.25;;;12.63;100.00
30081;BME280;16902;50.816;12.828;2023-05-16T12:52:18;97778.59;;;12.00;100.00
30081;BME280;16902;50.816;12.828;2023-05-16T12:57:21;97793.41;;;11.57;100.00
30081;BME280;16902;50.816;12.828;2023-05-16T13:02:22;97792.03;;;11.25;100.00
30081;BME280;16902;50.816;12.828;2023-05-16T13:07:24;97790.94;;;11.70;100.00
30081;BME280;16902;50.816;12.828;2023-05-16T13:12:26;97801.06;;;12.01;100.00
30081;BME280;16902;50.816;12.828;2023-05-16T13:17:28;97811.88;;;12.20;100.00
30081;BME280;16902;50.816;12.828;2023-05-16T13:22:31;97808.16;;;11.50;100.00
30081;BME280;16902;50.816;12.828;2023-05-16T13:27:33;97806.22;;;11.37;100.00
30081;BME280;16902;50.816;12.828;2023-05-16T13:32:35;97815.19;;;11.86;100.00
30081;BME280;16902;50.816;12.828;2023-05-16T13:37:37;97820.47;;;12.14;100.00
30081;BME280;16902;50.816;12.828;2023-05-16T13:42:38;97824.50;;;11.95;100.00
30081;BME280;16902;50.816;12.828;2023-05-16T13:47:40;97823.78;;;12.07;100.00
30081;BME280;16902;50.816;12.828;2023-05-16T13:52:42;97823.63;;;11.73;100.00
30081;BME280;16902;50.816;12.828;2023-05-16T13:57:44;97821.69;;;11.60;100.00
30081;BME280;16902;50.816;12.828;2023-05-16T14:02:46;97811.94;;;11.47;100.00
30081;BME280;16902;50.816;12.828;2023-05-16T14:07:48;97808.69;;;11.45;100.00
30081;BME280;16902;50.816;12.828;2023-05-16T14:12:49;97801.47;;;11.26;100.00
30081;BME280;16902;50.816;12.828;2023-05-16T14:17:52;97802.63;;;11.38;100.00
30081;BME280;16902;50.816;12.828;2023-05-16T14:22:54;97806.25;;;11.22;100.00
30081;BME280;16902;50.816;12.828;2023-05-16T14:27:56;97808.78;;;11.52;100.00
30081;BME280;16902;50.816;12.828;2023-05-16T14:32:57;97808.91;;;11.65;100.00
30081;BME280;16902;50.816;12.828;2023-05-16T14:37:59;97807.75;;;11.68;100.00
30081;BME280;16902;50.816;12.828;2023-05-16T14:43:01;97806.72;;;12.05;100.00
30081;BME280;16902;50.816;12.828;2023-05-16T14:48:05;97821.47;;;12.41;100.00
30081;BME280;16902;50.816;12.828;2023-05-16T14:53:09;97815.22;;;11.92;100.00
30081;BME280;16902;50.816;12.828;2023-05-16T14:58:10;97816.59;;;12.66;100.00
30081;BME280;16902;50.816;12.828;2023-05-16T15:03:12;97821.91;;;13.55;100.00
30081;BME280;16902;50.816;12.828;2023-05-16T15:08:16;97817.13;;;12.26;100.00
30081;BME280;16902;50.816;12.828;2023-05-16T15:13:18;97819.09;;;11.96;100.00
30081;BME280;16902;50.816;12.828;2023-05-16T15:18:20;97819.44;;;11.93;100.00
30081;BME280;16902;50.816;12.828;2023-05-16T15:23:22;97822.13;;;12.21;100.00
30081;BME280;16902;50.816;12.828;2023-05-16T15:28:24;97825.50;;;13.06;100.00
30081;BME280;16902;50.816;12.828;2023-05-16T15:33:25;97831.31;;;13.01;100.00
30081;BME280;16902;50.816;12.828;2023-05-16T15:38:27;97836.06;;;14.93;100.00
30081;BME280;16902;50.816;12.828;2023-05-16T15:43:29;97837.00;;;17.68;100.00
30081;BME280;16902;50.816;12.828;2023-05-16T15:48:30;97827.34;;;17.14;100.00
30081;BME280;16902;50.816;12.828;2023-05-16T15:53:32;97822.91;;;15.06;100.00
30081;BME280;16902;50.816;12.828;2023-05-16T15:58:34;97823.13;;;13.66;100.00
30081;BME280;16902;50.816;12.828;2023-05-16T16:03:36;97820.78;;;12.88;100.00
30081;BME280;16902;50.816;12.828;2023-05-16T16:08:38;97815.25;;;12.76;100.00
30081;BME280;16902;50.816;12.828;2023-05-16T16:13:40;97805.63;;;12.77;100.00
30081;BME280;16902;50.816;12.828;2023-05-16T16:18:42;97801.50;;;12.61;100.00
30081;BME280;16902;50.816;12.828;2023-05-16T16:23:43;97805.50;;;12.29;100.00
30081;BME280;16902;50.816;12.828;2023-05-16T16:28:45;97805.91;;;12.95;100.00
30081;BME280;16902;50.816;12.828;2023-05-16T16:33:47;97813.09;;;13.82;100.00
30081;BME280;16902;50.816;12.828;2023-05-16T16:38:49;97815.31;;;13.85;100.00
30081;BME280;16902;50.816;12.828;2023-05-16T16:43:51;97814.28;;;13.19;100.00
30081;BME280;16902;50.816;12.828;2023-05-16T16:48:53;97821.28;;;13.11;100.00
30081;BME280;16902;50.816;12.828;2023-05-16T16:53:55;97811.72;;;12.56;100.00
30081;BME280;16902;50.816;12.828;2023-05-16T16:58:59;97818.56;;;12.29;100.00
30081;BME280;16902;50.816;12.828;2023-05-16T17:04:00;97841.06;;;12.30;100.00
30081;BME280;16902;50.816;12.828;2023-05-16T17:09:02;97848.16;;;11.93;100.00
30081;BME280;16902;50.816;12.828;2023-05-16T17:14:07;97845.72;;;11.92;100.00
30081;BME280;16902;50.816;12.828;2023-05-16T17:19:11;97854.06;;;11.66;100.00
30081;BME280;16902;50.816;12.828;2023-05-16T17:24:12;97856.75;;;11.72;100.00
30081;BME280;16902;50.816;12.828;2023-05-16T17:29:14;97842.09;;;11.71;100.00
30081;BME280;16902;50.816;12.828;2023-05-16T17:34:16;97842.13;;;11.56;100.00
30081;BME280;16902;50.816;12.828;2023-05-16T17:39:18;97857.44;;;11.45;100.00
30081;BME280;16902;50.816;12.828;2023-05-16T17:44:20;97862.59;;;11.23;100.00
30081;BME280;16902;50.816;12.828;2023-05-16T17:49:22;97861.13;;;10.91;100.00
30081;BME280;16902;50.816;12.828;2023-05-16T17:54:24;97871.88;;;10.59;100.00
30081;BME280;16902;50.816;12.828;2023-05-16T17:59:27;97873.13;;;10.25;100.00
30081;BME280;16902;50.816;12.828;2023-05-16T18:04:30;97880.16;;;9.93;100.00
30081;BME280;16902;50.816;12.828;2023-05-16T18:09:32;97880.94;;;9.71;100.00
30081;BME280;16902;50.816;12.828;2023-05-16T18:14:34;97884.94;;;9.50;100.00
30081;BME280;16902;50.816;12.828;2023-05-16T18:19:36;97882.16;;;9.21;100.00
30081;BME280;16902;50.816;12.828;2023-05-16T18:24:37;97882.53;;;8.93;100.00
30081;BME280;16902;50.816;12.828;2023-05-16T18:29:40;97887.94;;;8.59;100.00
30081;BME280;16902;50.816;12.828;2023-05-16T18:34:42;97881.94;;;8.34;100.00
30081;BME280;16902;50.816;12.828;2023-05-16T18:39:44;97885.00;;;8.05;100.00
30081;BME280;16902;50.816;12.828;2023-05-16T18:44:46;97887.56;;;7.97;100.00
30081;BME280;16902;50.816;12.828;2023-05-16T18:49:47;97901.75;;;7.68;100.00
30081;BME280;16902;50.816;12.828;2023-05-16T18:54:49;97903.47;;;7.43;100.00
30081;BME280;16902;50.816;12.828;2023-05-16T18:59:51;97908.75;;;7.26;100.00
30081;BME280;16902;50.816;12.828;2023-05-16T19:04:54;97911.88;;;7.03;100.00
30081;BME280;16902;50.816;12.828;2023-05-16T19:09:57;97919.72;;;6.93;100.00
30081;BME280;16902;50.816;12.828;2023-05-16T19:15:03;97931.19;;;6.65;100.00
30081;BME280;16902;50.816;12.828;2023-05-16T19:20:06;97927.88;;;6.55;100.00
30081;BME280;16902;50.816;12.828;2023-05-16T19:25:09;97934.84;;;6.36;100.00
30081;BME280;16902;50.816;12.828;2023-05-16T19:30:11;97937.34;;;6.28;100.00
30081;BME280;16902;50.816;12.828;2023-05-16T19:35:13;97937.84;;;5.96;100.00
30081;BME280;16902;50.816;12.828;2023-05-16T19:40:15;97944.25;;;5.64;100.00
30081;BME280;16902;50.816;12.828;2023-05-16T19:45:18;97940.75;;;5.56;100.00
30081;BME280;16902;50.816;12.828;2023-05-16T19:50:20;97945.72;;;5.39;100.00
30081;BME280;16902;50.816;12.828;2023-05-16T19:55:22;97951.63;;;5.32;100.00
30081;BME280;16902;50.816;12.828;2023-05-16T20:00:24;97959.47;;;5.30;100.00
30081;BME280;16902;50.816;12.828;2023-05-16T20:05:25;97960.47;;;5.20;100.00
30081;BME280;16902;50.816;12.828;2023-05-16T20:10:28;97965.13;;;5.06;100.00
30081;BME280;16902;50.816;12.828;2023-05-16T20:15:29;97969.09;;;4.91;100.00
30081;BME280;16902;50.816;12.828;2023-05-16T20:20:31;97977.50;;;4.93;100.00
30081;BME280;16902;50.816;12.828;2023-05-16T20:25:33;97969.06;;;5.10;100.00
30081;BME280;16902;50.816;12.828;2023-05-16T20:30:35;97978.97;;;5.52;100.00
30081;BME280;16902;50.816;12.828;2023-05-16T20:35:37;97988.53;;;5.70;100.00
30081;BME280;16902;50.816;12.828;2023-05-16T20:40:39;98001.13;;;5.82;100.00
30081;BME280;16902;50.816;12.828;2023-05-16T20:45:41;98005.56;;;6.00;100.00
30081;BME280;16902;50.816;12.828;2023-05-16T20:50:42;98001.72;;;6.04;100.00
30081;BME280;16902;50.816;12.828;2023-05-16T20:55:44;98009.88;;;6.27;100.00
30081;BME280;16902;50.816;12.828;2023-05-16T21:00:46;98017.53;;;6.18;100.00
30081;BME280;16902;50.816;12.828;2023-05-16T21:05:48;98012.44;;;6.09;100.00
30081;BME280;16902;50.816;12.828;2023-05-16T21:10:49;98012.75;;;6.06;100.00
30081;BME280;16902;50.816;12.828;2023-05-16T21:15:51;98021.03;;;6.09;100.00
30081;BME280;16902;50.816;12.828;2023-05-16T21:20:53;98020.34;;;6.07;100.00
30081;BME280;16902;50.816;12.828;2023-05-16T21:25:55;98021.34;;;6.24;100.00
30081;BME280;16902;50.816;12.828;2023-05-16T21:30:56;98012.84;;;6.32;100.00
30081;BME280;16902;50.816;12.828;2023-05-16T21:35:58;98013.81;;;6.31;100.00
30081;BME280;16902;50.816;12.828;2023-05-16T21:41:00;98026.25;;;6.17;100.00
30081;BME280;16902;50.816;12.828;2023-05-16T21:46:02;98022.34;;;6.13;100.00
30081;BME280;16902;50.816;12.828;2023-05-16T21:51:04;98014.78;;;6.02;100.00
30081;BME280;16902;50.816;12.828;2023-05-16T21:56:06;98013.09;;;5.83;100.00
30081;BME280;16902;50.816;12.828;2023-05-16T22:01:08;98007.84;;;5.65;100.00
30081;BME280;16902;50.816;12.828;2023-05-16T22:06:10;98014.94;;;5.63;100.00
30081;BME280;16902;50.816;12.828;2023-05-16T22:11:11;98020.53;;;5.59;100.00
30081;BME280;16902;50.816;12.828;2023-05-16T22:16:13;98022.81;;;5.72;100.00
30081;BME280;16902;50.816;12.828;2023-05-16T22:21:15;98030.88;;;5.59;100.00
30081;BME280;16902;50.816;12.828;2023-05-16T22:26:17;98027.06;;;5.90;100.00
30081;BME280;16902;50.816;12.828;2023-05-16T22:31:19;98025.47;;;5.80;100.00
30081;BME280;16902;50.816;12.828;2023-05-16T22:36:20;98029.34;;;5.66;100.00
30081;BME280;16902;50.816;12.828;2023-05-16T22:41:22;98031.97;;;5.56;100.00
30081;BME280;16902;50.816;12.828;2023-05-16T22:46:25;98032.59;;;5.68;100.00
30081;BME280;16902;50.816;12.828;2023-05-16T22:51:27;98036.41;;;5.64;100.00
30081;BME280;16902;50.816;12.828;2023-05-16T22:56:28;98034.44;;;5.85;100.00
30081;BME280;16902;50.816;12.828;2023-05-16T23:01:30;98042.50;;;5.73;100.00
30081;BME280;16902;50.816;12.828;2023-05-16T23:06:33;98058.75;;;5.46;100.00
30081;BME280;16902;50.816;12.828;2023-05-16T23:11:34;98068.44;;;5.44;100.00
30081;BME280;16902;50.816;12.828;2023-05-16T23:16:36;98072.22;;;5.39;100.00
30081;BME280;16902;50.816;12.828;2023-05-16T23:21:38;98062.09;;;5.19;100.00
30081;BME280;16902;50.816;12.828;2023-05-16T23:26:40;98063.88;;;5.08;100.00
30081;BME280;16902;50.816;12.828;2023-05-16T23:31:42;98056.94;;;4.99;100.00
30081;BME280;16902;50.816;12.828;2023-05-16T23:36:43;98061.16;;;5.10;100.00
30081;BME280;16902;50.816;12.828;2023-05-16T23:41:45;98068.34;;;4.97;100.00
30081;BME280;16902;50.816;12.828;2023-05-16T23:46:47;98076.50;;;4.92;100.00
30081;BME280;16902;50.816;12.828;2023-05-16T23:51:49;98075.28;;;4.86;100.00
30081;BME280;16902;50.816;12.828;2023-05-16T23:56:54;98071.75;;;4.87;100.00
